^^
Saratoga-Weather Station Historical Data
Daily Summary for May 19, 2020 Units:  Both    English   Metric
Daily Weekly Monthly Yearly Custom
  High: Low: Average:
Temperature: 72.3 °F /  22.4 °C 55.6 °F /  13.1 °C 64.6 °F /  18.1 °C
Dew Point: 57.4 °F /  14.1 °C 50.7 °F /  10.4 °C 54.3 °F /  12.4 °C
Humidity: 88% 51% 70%
Wind Speed: 11mph /  17.7km/h - 3.4mph /  5.4km/h
Wind Gust: 15mph /  24.1km/h - -
Wind- - West
Pressure: 30.1 in /  1018.6 hPa 29.9 in /  1013.9 hPa -
Precipitation: 0 in /  0.0 mm    
Historical Graphs
 
 
Tabular Data for May 19, 2020
Time Temperature Dew Point Pressure Wind Wind Speed Wind Gust Humidity Rainfall Rate (Hourly) solar
00:00 60.1 °F /  15.6 °C 54.3 °F /  12.4 °C 29.9in /  1013.9hPa ENE 0.9mph /  1.4km/h 4mph /  6.4km/h 81% 0in /  0.0mm 0 W/m2
00:05 60.1 °F /  15.6 °C 54.3 °F /  12.4 °C 29.9in /  1013.9hPa West 2.9mph /  4.7km/h 4mph /  6.4km/h 81% 0in /  0.0mm 0 W/m2
00:10 60.1 °F /  15.6 °C 54 °F /  12.2 °C 29.9in /  1013.9hPa WSW 2mph /  3.2km/h 3mph /  4.8km/h 80% 0in /  0.0mm 0 W/m2
00:15 60.1 °F /  15.6 °C 54.3 °F /  12.4 °C 29.9in /  1013.9hPa West 0.9mph /  1.4km/h 6mph /  9.7km/h 81% 0in /  0.0mm 0 W/m2
00:20 60.1 °F /  15.6 °C 54.3 °F /  12.4 °C 29.9in /  1013.9hPa West 0.9mph /  1.4km/h 4mph /  6.4km/h 81% 0in /  0.0mm 0 W/m2
00:25 59.9 °F /  15.5 °C 54.1 °F /  12.3 °C 29.9in /  1013.9hPa WSW 2mph /  3.2km/h 3mph /  4.8km/h 81% 0in /  0.0mm 0 W/m2
00:30 59.9 °F /  15.5 °C 54.1 °F /  12.3 °C 29.9in /  1013.9hPa SW 4mph /  6.4km/h 4mph /  6.4km/h 81% 0in /  0.0mm 0 W/m2
00:35 60.1 °F /  15.6 °C 54 °F /  12.2 °C 29.9in /  1013.9hPa Calm   2mph /  3.2km/h 80% 0in /  0.0mm 0 W/m2
00:40 60.1 °F /  15.6 °C 54 °F /  12.2 °C 29.9in /  1013.9hPa West 2mph /  3.2km/h 5mph /  8km/h 80% 0in /  0.0mm 0 W/m2
00:45 60.3 °F /  15.7 °C 53.8 °F /  12.1 °C 29.9in /  1013.9hPa West 2mph /  3.2km/h 6mph /  9.7km/h 79% 0in /  0.0mm 0 W/m2
00:50 60.4 °F /  15.8 °C 53.6 °F /  12 °C 30in /  1014.2hPa WSW 2.9mph /  4.7km/h 4mph /  6.4km/h 78% 0in /  0.0mm 0 W/m2
00:55 60.4 °F /  15.8 °C 53.6 °F /  12 °C 30in /  1014.2hPa WSW 4.9mph /  7.9km/h 8mph /  12.9km/h 78% 0in /  0.0mm 0 W/m2
01:00 60.4 °F /  15.8 °C 53.2 °F /  11.8 °C 30in /  1014.2hPa NW 4mph /  6.4km/h 4mph /  6.4km/h 77% 0in /  0.0mm 0 W/m2
01:05 60.4 °F /  15.8 °C 53.2 °F /  11.8 °C 30in /  1014.2hPa WSW 2.9mph /  4.7km/h 6mph /  9.7km/h 77% 0in /  0.0mm 0 W/m2
01:10 60.6 °F /  15.9 °C 53.4 °F /  11.9 °C 30in /  1014.2hPa WNW 2mph /  3.2km/h 4mph /  6.4km/h 77% 0in /  0.0mm 0 W/m2
01:15 60.6 °F /  15.9 °C 53.4 °F /  11.9 °C 30in /  1014.2hPa WNW 6.9mph /  11.1km/h 7mph /  11.3km/h 77% 0in /  0.0mm 0 W/m2
01:20 60.6 °F /  15.9 °C 53.4 °F /  11.9 °C 30in /  1014.2hPa West 2mph /  3.2km/h 3mph /  4.8km/h 77% 0in /  0.0mm 0 W/m2
01:25 60.4 °F /  15.8 °C 53.2 °F /  11.8 °C 30in /  1014.2hPa WNW 4mph /  6.4km/h 6mph /  9.7km/h 77% 0in /  0.0mm 0 W/m2
01:30 60.4 °F /  15.8 °C 53.2 °F /  11.8 °C 30in /  1014.2hPa West 4mph /  6.4km/h 6mph /  9.7km/h 77% 0in /  0.0mm 0 W/m2
01:35 60.4 °F /  15.8 °C 53.2 °F /  11.8 °C 30in /  1014.2hPa West 2mph /  3.2km/h 7mph /  11.3km/h 77% 0in /  0.0mm 0 W/m2
01:40 60.4 °F /  15.8 °C 53.2 °F /  11.8 °C 30in /  1014.2hPa WSW 2mph /  3.2km/h 7mph /  11.3km/h 77% 0in /  0.0mm 0 W/m2
01:45 60.6 °F /  15.9 °C 53.4 °F /  11.9 °C 30in /  1014.2hPa West 2mph /  3.2km/h 3mph /  4.8km/h 77% 0in /  0.0mm 0 W/m2
01:50 60.6 °F /  15.9 °C 53.4 °F /  11.9 °C 30in /  1014.2hPa NW 2mph /  3.2km/h 4mph /  6.4km/h 77% 0in /  0.0mm 0 W/m2
01:55 60.6 °F /  15.9 °C 53.1 °F /  11.7 °C 30in /  1014.2hPa West 2mph /  3.2km/h 7mph /  11.3km/h 76% 0in /  0.0mm 0 W/m2
02:00 60.6 °F /  15.9 °C 53.1 °F /  11.7 °C 30in /  1014.2hPa WNW 2mph /  3.2km/h 8mph /  12.9km/h 76% 0in /  0.0mm 0 W/m2
02:05 60.6 °F /  15.9 °C 53.4 °F /  11.9 °C 30in /  1014.2hPa NW 4mph /  6.4km/h 7mph /  11.3km/h 77% 0in /  0.0mm 0 W/m2
02:10 60.4 °F /  15.8 °C 53.2 °F /  11.8 °C 30in /  1014.2hPa West 6mph /  9.7km/h 7mph /  11.3km/h 77% 0in /  0.0mm 0 W/m2
02:15 60.4 °F /  15.8 °C 53.2 °F /  11.8 °C 30in /  1014.2hPa NW 2mph /  3.2km/h 7mph /  11.3km/h 77% 0in /  0.0mm 0 W/m2
02:20 60.3 °F /  15.7 °C 53.4 °F /  11.9 °C 30in /  1014.2hPa WNW 2mph /  3.2km/h 6mph /  9.7km/h 78% 0in /  0.0mm 0 W/m2
02:25 60.1 °F /  15.6 °C 53.2 °F /  11.8 °C 30in /  1014.2hPa West 6mph /  9.7km/h 6mph /  9.7km/h 78% 0in /  0.0mm 0 W/m2
02:30 59.7 °F /  15.4 °C 53.2 °F /  11.8 °C 30in /  1014.2hPa WNW 2mph /  3.2km/h 6mph /  9.7km/h 79% 0in /  0.0mm 0 W/m2
02:35 59.5 °F /  15.3 °C 53.4 °F /  11.9 °C 30in /  1014.2hPa WNW 8.9mph /  14.3km/h 9mph /  14.5km/h 80% 0in /  0.0mm 0 W/m2
02:40 59.5 °F /  15.3 °C 53.4 °F /  11.9 °C 30in /  1014.2hPa SSW 2.9mph /  4.7km/h 6mph /  9.7km/h 80% 0in /  0.0mm 0 W/m2
02:45 59.5 °F /  15.3 °C 53.4 °F /  11.9 °C 30in /  1014.2hPa West 0.9mph /  1.4km/h 6mph /  9.7km/h 80% 0in /  0.0mm 0 W/m2
02:51 59.4 °F /  15.2 °C 53.2 °F /  11.8 °C 30in /  1014.2hPa West 2.9mph /  4.7km/h 8mph /  12.9km/h 80% 0in /  0.0mm 0 W/m2
02:56 59.2 °F /  15.1 °C 53.4 °F /  11.9 °C 30in /  1014.2hPa WSW 4.9mph /  7.9km/h 5mph /  8km/h 81% 0in /  0.0mm 0 W/m2
03:01 59.2 °F /  15.1 °C 53.4 °F /  11.9 °C 30in /  1014.2hPa West 2.9mph /  4.7km/h 4mph /  6.4km/h 81% 0in /  0.0mm 0 W/m2
03:11 58.8 °F /  14.9 °C 53.1 °F /  11.7 °C 30in /  1014.2hPa WSW 4mph /  6.4km/h 6mph /  9.7km/h 81% 0in /  0.0mm 0 W/m2
03:16 58.8 °F /  14.9 °C 53.1 °F /  11.7 °C 30in /  1014.2hPa West 2.9mph /  4.7km/h 8mph /  12.9km/h 81% 0in /  0.0mm 0 W/m2
03:21 58.8 °F /  14.9 °C 52.7 °F /  11.5 °C 30in /  1014.2hPa West 2mph /  3.2km/h 4mph /  6.4km/h 80% 0in /  0.0mm 0 W/m2
03:26 58.6 °F /  14.8 °C 52.9 °F /  11.6 °C 30in /  1014.2hPa West 2mph /  3.2km/h 7mph /  11.3km/h 81% 0in /  0.0mm 0 W/m2
03:32 58.6 °F /  14.8 °C 52.9 °F /  11.6 °C 30in /  1014.2hPa West 2mph /  3.2km/h 10mph /  16.1km/h 81% 0in /  0.0mm 0 W/m2
03:37 58.5 °F /  14.7 °C 52.7 °F /  11.5 °C 30in /  1014.2hPa West 4mph /  6.4km/h 6mph /  9.7km/h 81% 0in /  0.0mm 0 W/m2
03:42 58.3 °F /  14.6 °C 52.9 °F /  11.6 °C 30in /  1014.2hPa WNW 2.9mph /  4.7km/h 10mph /  16.1km/h 82% 0in /  0.0mm 0 W/m2
03:47 58.1 °F /  14.5 °C 52.7 °F /  11.5 °C 30in /  1014.6hPa WNW 4mph /  6.4km/h 4mph /  6.4km/h 82% 0in /  0.0mm 0 W/m2
03:52 57.9 °F /  14.4 °C 52.5 °F /  11.4 °C 30in /  1014.2hPa WNW 4mph /  6.4km/h 9mph /  14.5km/h 82% 0in /  0.0mm 0 W/m2
03:57 57.7 °F /  14.3 °C 52.3 °F /  11.3 °C 30in /  1014.2hPa WNW 0.9mph /  1.4km/h 3mph /  4.8km/h 82% 0in /  0.0mm 0 W/m2
04:02 57.6 °F /  14.2 °C 52.5 °F /  11.4 °C 30in /  1014.2hPa West 0.9mph /  1.4km/h 7mph /  11.3km/h 83% 0in /  0.0mm 0 W/m2
04:07 57.6 °F /  14.2 °C 52.5 °F /  11.4 °C 30in /  1014.6hPa West 4mph /  6.4km/h 5mph /  8km/h 83% 0in /  0.0mm 0 W/m2
04:12 57.4 °F /  14.1 °C 52.3 °F /  11.3 °C 30in /  1014.6hPa West 2mph /  3.2km/h 9mph /  14.5km/h 83% 0in /  0.0mm 0 W/m2
04:17 57 °F /  13.9 °C 52 °F /  11.1 °C 30in /  1014.6hPa WSW 2mph /  3.2km/h 2mph /  3.2km/h 83% 0in /  0.0mm 0 W/m2
04:22 57 °F /  13.9 °C 52.2 °F /  11.2 °C 30in /  1014.6hPa West 2mph /  3.2km/h 7mph /  11.3km/h 84% 0in /  0.0mm 0 W/m2
04:27 56.8 °F /  13.8 °C 52 °F /  11.1 °C 30in /  1014.6hPa West 2mph /  3.2km/h 3mph /  4.8km/h 84% 0in /  0.0mm 0 W/m2
04:32 56.8 °F /  13.8 °C 52 °F /  11.1 °C 30in /  1014.6hPa West 2mph /  3.2km/h 3mph /  4.8km/h 84% 0in /  0.0mm 0 W/m2
04:37 56.7 °F /  13.7 °C 51.8 °F /  11 °C 30in /  1014.6hPa WNW 2mph /  3.2km/h 3mph /  4.8km/h 84% 0in /  0.0mm 0 W/m2
04:42 56.7 °F /  13.7 °C 51.8 °F /  11 °C 30in /  1014.6hPa WNW 2mph /  3.2km/h 3mph /  4.8km/h 84% 0in /  0.0mm 0 W/m2
04:47 56.5 °F /  13.6 °C 52 °F /  11.1 °C 30in /  1014.6hPa West 2mph /  3.2km/h 4mph /  6.4km/h 85% 0in /  0.0mm 0 W/m2
04:52 56.5 °F /  13.6 °C 52 °F /  11.1 °C 30in /  1014.6hPa West 2.9mph /  4.7km/h 3mph /  4.8km/h 85% 0in /  0.0mm 0 W/m2
04:57 56.5 °F /  13.6 °C 52 °F /  11.1 °C 30in /  1014.6hPa WNW 2.9mph /  4.7km/h 4mph /  6.4km/h 85% 0in /  0.0mm 0 W/m2
05:02 56.5 °F /  13.6 °C 52 °F /  11.1 °C 30in /  1014.6hPa WSW 4mph /  6.4km/h 6mph /  9.7km/h 85% 0in /  0.0mm 0 W/m2
05:07 56.5 °F /  13.6 °C 52 °F /  11.1 °C 30in /  1014.6hPa SW 4.9mph /  7.9km/h 7mph /  11.3km/h 85% 0in /  0.0mm 0 W/m2
05:12 56.5 °F /  13.6 °C 52 °F /  11.1 °C 30in /  1014.6hPa West 4mph /  6.4km/h 7mph /  11.3km/h 85% 0in /  0.0mm 0 W/m2
05:17 56.5 °F /  13.6 °C 52 °F /  11.1 °C 30in /  1014.6hPa West 6mph /  9.7km/h 8mph /  12.9km/h 85% 0in /  0.0mm 0 W/m2
05:22 56.5 °F /  13.6 °C 52 °F /  11.1 °C 30in /  1014.6hPa WNW 2mph /  3.2km/h 7mph /  11.3km/h 85% 0in /  0.0mm 0 W/m2
05:27 56.3 °F /  13.5 °C 51.8 °F /  11 °C 30in /  1014.6hPa WNW 2mph /  3.2km/h 6mph /  9.7km/h 85% 0in /  0.0mm 0 W/m2
05:32 56.1 °F /  13.4 °C 51.6 °F /  10.9 °C 30in /  1014.6hPa West 2mph /  3.2km/h 6mph /  9.7km/h 85% 0in /  0.0mm 5 W/m2
05:37 56.1 °F /  13.4 °C 51.6 °F /  10.9 °C 30in /  1014.6hPa West 2mph /  3.2km/h 7mph /  11.3km/h 85% 0in /  0.0mm 5 W/m2
05:42 56.1 °F /  13.4 °C 51.6 °F /  10.9 °C 30in /  1014.6hPa WSW 8.1mph /  13km/h 9mph /  14.5km/h 85% 0in /  0.0mm 9 W/m2
05:47 56.1 °F /  13.4 °C 51.6 °F /  10.9 °C 30in /  1014.6hPa WSW 2.9mph /  4.7km/h 4mph /  6.4km/h 85% 0in /  0.0mm 12 W/m2
05:52 55.9 °F /  13.3 °C 51.8 °F /  11 °C 30in /  1014.6hPa West 2.9mph /  4.7km/h 9mph /  14.5km/h 86% 0in /  0.0mm 16 W/m2
05:57 55.9 °F /  13.3 °C 51.8 °F /  11 °C 30in /  1014.6hPa West 2mph /  3.2km/h 4mph /  6.4km/h 86% 0in /  0.0mm 19 W/m2
06:02 55.8 °F /  13.2 °C 51.6 °F /  10.9 °C 30in /  1014.6hPa West 6mph /  9.7km/h 6mph /  9.7km/h 86% 0in /  0.0mm 23 W/m2
06:07 55.8 °F /  13.2 °C 51.6 °F /  10.9 °C 30in /  1014.9hPa West 2mph /  3.2km/h 6mph /  9.7km/h 86% 0in /  0.0mm 25 W/m2
06:13 55.9 °F /  13.3 °C 51.8 °F /  11 °C 30in /  1014.6hPa Calm   3mph /  4.8km/h 86% 0in /  0.0mm 25 W/m2
06:18 56.1 °F /  13.4 °C 52 °F /  11.1 °C 30in /  1014.6hPa Calm   5mph /  8km/h 86% 0in /  0.0mm 26 W/m2
06:23 56.1 °F /  13.4 °C 52 °F /  11.1 °C 30in /  1014.9hPa Calm     86% 0in /  0.0mm 28 W/m2
06:28 56.1 °F /  13.4 °C 52 °F /  11.1 °C 30in /  1014.9hPa West 0.9mph /  1.4km/h 3mph /  4.8km/h 86% 0in /  0.0mm 33 W/m2
06:33 56.1 °F /  13.4 °C 52 °F /  11.1 °C 30in /  1014.9hPa ESE 2.9mph /  4.7km/h 4mph /  6.4km/h 86% 0in /  0.0mm 42 W/m2
06:38 55.9 °F /  13.3 °C 51.8 °F /  11 °C 30in /  1014.9hPa ENE 2mph /  3.2km/h 3mph /  4.8km/h 86% 0in /  0.0mm 46 W/m2
06:43 55.8 °F /  13.2 °C 52 °F /  11.1 °C 30in /  1014.9hPa Calm     87% 0in /  0.0mm 44 W/m2
06:48 55.8 °F /  13.2 °C 52 °F /  11.1 °C 30in /  1014.9hPa Calm   1mph /  1.6km/h 87% 0in /  0.0mm 46 W/m2
06:53 55.6 °F /  13.1 °C 52.2 °F /  11.2 °C 30in /  1015.2hPa Calm     88% 0in /  0.0mm 46 W/m2
06:58 55.8 °F /  13.2 °C 52.3 °F /  11.3 °C 30in /  1015.2hPa ENE 0.9mph /  1.4km/h 1mph /  1.6km/h 88% 0in /  0.0mm 49 W/m2
07:03 55.8 °F /  13.2 °C 52.3 °F /  11.3 °C 30in /  1015.2hPa ENE 0.9mph /  1.4km/h 2mph /  3.2km/h 88% 0in /  0.0mm 51 W/m2
07:08 55.8 °F /  13.2 °C 52.3 °F /  11.3 °C 30in /  1015.2hPa East 2.9mph /  4.7km/h 3mph /  4.8km/h 88% 0in /  0.0mm 54 W/m2
07:13 55.9 °F /  13.3 °C 52.5 °F /  11.4 °C 30in /  1015.2hPa East 0.9mph /  1.4km/h 2mph /  3.2km/h 88% 0in /  0.0mm 62 W/m2
07:18 56.1 °F /  13.4 °C 52.7 °F /  11.5 °C 30in /  1015.2hPa Calm   1mph /  1.6km/h 88% 0in /  0.0mm 69 W/m2
07:23 56.3 °F /  13.5 °C 52.5 °F /  11.4 °C 30in /  1015.6hPa Calm   2mph /  3.2km/h 87% 0in /  0.0mm 77 W/m2
07:28 56.7 °F /  13.7 °C 52.9 °F /  11.6 °C 30in /  1015.6hPa Calm   3mph /  4.8km/h 87% 0in /  0.0mm 79 W/m2
07:33 56.8 °F /  13.8 °C 53.1 °F /  11.7 °C 30in /  1015.6hPa West 0.9mph /  1.4km/h 3mph /  4.8km/h 87% 0in /  0.0mm 86 W/m2
07:38 57.4 °F /  14.1 °C 53.6 °F /  12 °C 30in /  1015.6hPa Calm   8mph /  12.9km/h 87% 0in /  0.0mm 114 W/m2
07:43 57.7 °F /  14.3 °C 53.6 °F /  12 °C 30in /  1015.6hPa NW 2mph /  3.2km/h 4mph /  6.4km/h 86% 0in /  0.0mm 207 W/m2
07:48 58.3 °F /  14.6 °C 54.1 °F /  12.3 °C 30in /  1015.6hPa Calm   8mph /  12.9km/h 86% 0in /  0.0mm 195 W/m2
07:53 58.5 °F /  14.7 °C 54 °F /  12.2 °C 30in /  1015.6hPa West 6.9mph /  11.1km/h 8mph /  12.9km/h 85% 0in /  0.0mm 221 W/m2
07:58 58.8 °F /  14.9 °C 54.3 °F /  12.4 °C 30in /  1015.6hPa WSW 2.9mph /  4.7km/h 8mph /  12.9km/h 85% 0in /  0.0mm 251 W/m2
08:03 59.4 °F /  15.2 °C 54.9 °F /  12.7 °C 30in /  1015.6hPa WSW 4mph /  6.4km/h 7mph /  11.3km/h 85% 0in /  0.0mm 332 W/m2
08:08 59.7 °F /  15.4 °C 54.9 °F /  12.7 °C 30in /  1015.6hPa NW 2mph /  3.2km/h 8mph /  12.9km/h 84% 0in /  0.0mm 339 W/m2
08:13 60.3 °F /  15.7 °C 55 °F /  12.8 °C 30in /  1015.6hPa Calm   3mph /  4.8km/h 83% 0in /  0.0mm 329 W/m2
08:18 61 °F /  16.1 °C 55.4 °F /  13 °C 30in /  1015.6hPa West 2mph /  3.2km/h 7mph /  11.3km/h 82% 0in /  0.0mm 339 W/m2
08:23 61.3 °F /  16.3 °C 55.4 °F /  13 °C 30in /  1015.6hPa NW 2.9mph /  4.7km/h 6mph /  9.7km/h 81% 0in /  0.0mm 359 W/m2
08:28 61.5 °F /  16.4 °C 55.2 °F /  12.9 °C 30in /  1015.6hPa WSW 4mph /  6.4km/h 6mph /  9.7km/h 80% 0in /  0.0mm 371 W/m2
08:33 61.9 °F /  16.6 °C 55.2 °F /  12.9 °C 30in /  1015.6hPa West 6mph /  9.7km/h 10mph /  16.1km/h 79% 0in /  0.0mm 364 W/m2
08:38 62.1 °F /  16.7 °C 55.4 °F /  13 °C 30in /  1015.6hPa West 4mph /  6.4km/h 9mph /  14.5km/h 79% 0in /  0.0mm 378 W/m2
08:44 62.2 °F /  16.8 °C 55.6 °F /  13.1 °C 30in /  1015.6hPa WNW 4mph /  6.4km/h 10mph /  16.1km/h 79% 0in /  0.0mm 406 W/m2
08:49 62.2 °F /  16.8 °C 55.2 °F /  12.9 °C 30in /  1015.6hPa NNW 6mph /  9.7km/h 8mph /  12.9km/h 78% 0in /  0.0mm 366 W/m2
08:57 62.1 °F /  16.7 °C 55.4 °F /  13 °C 30in /  1015.6hPa West 2mph /  3.2km/h 5mph /  8km/h 79% 0in /  0.0mm 329 W/m2
09:02 62.4 °F /  16.9 °C 55.8 °F /  13.2 °C 30in /  1015.9hPa East 4mph /  6.4km/h 4mph /  6.4km/h 79% 0in /  0.0mm 316 W/m2
09:07 62.6 °F /  17 °C 55.9 °F /  13.3 °C 30in /  1015.9hPa SSW 2.9mph /  4.7km/h 6mph /  9.7km/h 79% 0in /  0.0mm 304 W/m2
09:12 62.4 °F /  16.9 °C 55.8 °F /  13.2 °C 30in /  1015.9hPa NNW 4mph /  6.4km/h 4mph /  6.4km/h 79% 0in /  0.0mm 403 W/m2
09:17 62.8 °F /  17.1 °C 56.1 °F /  13.4 °C 30in /  1015.9hPa WNW 2.9mph /  4.7km/h 4mph /  6.4km/h 79% 0in /  0.0mm 374 W/m2
09:22 63 °F /  17.2 °C 56.3 °F /  13.5 °C 30in /  1015.9hPa WNW 4.9mph /  7.9km/h 5mph /  8km/h 79% 0in /  0.0mm 410 W/m2
09:27 63.1 °F /  17.3 °C 56.1 °F /  13.4 °C 30in /  1015.9hPa Calm   4mph /  6.4km/h 78% 0in /  0.0mm 381 W/m2
09:32 63.3 °F /  17.4 °C 56.3 °F /  13.5 °C 30in /  1015.9hPa West 4mph /  6.4km/h 4mph /  6.4km/h 78% 0in /  0.0mm 394 W/m2
09:37 63.5 °F /  17.5 °C 56.5 °F /  13.6 °C 30in /  1015.9hPa West 2mph /  3.2km/h 3mph /  4.8km/h 78% 0in /  0.0mm 417 W/m2
09:42 63.7 °F /  17.6 °C 56.3 °F /  13.5 °C 30in /  1015.9hPa West 2.9mph /  4.7km/h 5mph /  8km/h 77% 0in /  0.0mm 471 W/m2
09:47 63.9 °F /  17.7 °C 56.8 °F /  13.8 °C 30in /  1015.9hPa Calm   3mph /  4.8km/h 78% 0in /  0.0mm 480 W/m2
09:52 64.2 °F /  17.9 °C 56.5 °F /  13.6 °C 30in /  1015.9hPa NNW 2.9mph /  4.7km/h 3mph /  4.8km/h 76% 0in /  0.0mm 429 W/m2
09:57 64.2 °F /  17.9 °C 56.1 °F /  13.4 °C 30in /  1015.9hPa NW 4mph /  6.4km/h 7mph /  11.3km/h 75% 0in /  0.0mm 232 W/m2
10:02 64.2 °F /  17.9 °C 55.8 °F /  13.2 °C 30in /  1015.9hPa WNW 6.9mph /  11.1km/h 8mph /  12.9km/h 74% 0in /  0.0mm 480 W/m2
10:07 64.2 °F /  17.9 °C 56.1 °F /  13.4 °C 30in /  1015.9hPa West 2mph /  3.2km/h 6mph /  9.7km/h 75% 0in /  0.0mm 443 W/m2
10:12 64.6 °F /  18.1 °C 56.5 °F /  13.6 °C 30in /  1015.9hPa NW 2mph /  3.2km/h 7mph /  11.3km/h 75% 0in /  0.0mm 267 W/m2
10:17 64.8 °F /  18.2 °C 56.3 °F /  13.5 °C 30in /  1015.9hPa West 4mph /  6.4km/h 7mph /  11.3km/h 74% 0in /  0.0mm 448 W/m2
10:22 64.8 °F /  18.2 °C 56.7 °F /  13.7 °C 30in /  1015.9hPa NW 4mph /  6.4km/h 4mph /  6.4km/h 75% 0in /  0.0mm 564 W/m2
10:27 65.1 °F /  18.4 °C 56.7 °F /  13.7 °C 30in /  1015.9hPa NW 2.9mph /  4.7km/h 8mph /  12.9km/h 74% 0in /  0.0mm 573 W/m2
10:32 65.3 °F /  18.5 °C 56.8 °F /  13.8 °C 30in /  1015.9hPa ENE 0.9mph /  1.4km/h 2mph /  3.2km/h 74% 0in /  0.0mm 589 W/m2
10:37 66 °F /  18.9 °C 57.2 °F /  14 °C 30in /  1015.9hPa WSW 4.9mph /  7.9km/h 7mph /  11.3km/h 73% 0in /  0.0mm 663 W/m2
10:42 66 °F /  18.9 °C 56.7 °F /  13.7 °C 30in /  1015.9hPa WNW 6.9mph /  11.1km/h 9mph /  14.5km/h 72% 0in /  0.0mm 668 W/m2
10:47 66 °F /  18.9 °C 56.7 °F /  13.7 °C 30in /  1016.3hPa West 2.9mph /  4.7km/h 7mph /  11.3km/h 72% 0in /  0.0mm 675 W/m2
10:52 66.2 °F /  19 °C 56.5 °F /  13.6 °C 30in /  1015.9hPa NNW 2.9mph /  4.7km/h 5mph /  8km/h 71% 0in /  0.0mm 610 W/m2
10:57 66.4 °F /  19.1 °C 56.7 °F /  13.7 °C 30in /  1016.3hPa West 8.1mph /  13km/h 8mph /  12.9km/h 71% 0in /  0.0mm 633 W/m2
11:02 66.6 °F /  19.2 °C 56.5 °F /  13.6 °C 30in /  1016.3hPa WSW 4mph /  6.4km/h 6mph /  9.7km/h 70% 0in /  0.0mm 610 W/m2
11:07 66.4 °F /  19.1 °C 55.9 °F /  13.3 °C 30in /  1016.3hPa SW 6mph /  9.7km/h 9mph /  14.5km/h 69% 0in /  0.0mm 269 W/m2
11:12 66 °F /  18.9 °C 55.6 °F /  13.1 °C 30in /  1016.3hPa West 6.9mph /  11.1km/h 7mph /  11.3km/h 69% 0in /  0.0mm 613 W/m2
11:17 66 °F /  18.9 °C 55.9 °F /  13.3 °C 30in /  1016.3hPa NW 4mph /  6.4km/h 9mph /  14.5km/h 70% 0in /  0.0mm 659 W/m2
11:22 66.2 °F /  19 °C 55.8 °F /  13.2 °C 30in /  1016.3hPa NW 4mph /  6.4km/h 9mph /  14.5km/h 69% 0in /  0.0mm 773 W/m2
11:27 66.4 °F /  19.1 °C 55.9 °F /  13.3 °C 30in /  1016.3hPa WNW 2.9mph /  4.7km/h 5mph /  8km/h 69% 0in /  0.0mm 747 W/m2
11:32 66.6 °F /  19.2 °C 56.5 °F /  13.6 °C 30in /  1016.3hPa Calm   4mph /  6.4km/h 70% 0in /  0.0mm 366 W/m2
11:37 66.9 °F /  19.4 °C 55.9 °F /  13.3 °C 30in /  1016.3hPa WSW 8.9mph /  14.3km/h 9mph /  14.5km/h 68% 0in /  0.0mm 770 W/m2
11:42 67.3 °F /  19.6 °C 56.8 °F /  13.8 °C 30in /  1016.3hPa NW 0.9mph /  1.4km/h 3mph /  4.8km/h 69% 0in /  0.0mm 849 W/m2
11:47 67.5 °F /  19.7 °C 55.8 °F /  13.2 °C 30in /  1016.3hPa WSW 4.9mph /  7.9km/h 10mph /  16.1km/h 66% 0in /  0.0mm 886 W/m2
11:52 67.6 °F /  19.8 °C 56.3 °F /  13.5 °C 30in /  1016.3hPa WSW 4.9mph /  7.9km/h 7mph /  11.3km/h 67% 0in /  0.0mm 373 W/m2
11:57 67.5 °F /  19.7 °C 55.8 °F /  13.2 °C 30in /  1016.3hPa NW 2mph /  3.2km/h 9mph /  14.5km/h 66% 0in /  0.0mm 237 W/m2
12:02 66.7 °F /  19.3 °C 55.4 °F /  13 °C 30in /  1016.3hPa WNW 4mph /  6.4km/h 5mph /  8km/h 67% 0in /  0.0mm 213 W/m2
12:07 66.9 °F /  19.4 °C 56.5 °F /  13.6 °C 30in /  1016.3hPa NW 2.9mph /  4.7km/h 9mph /  14.5km/h 69% 0in /  0.0mm 970 W/m2
12:17 67.6 °F /  19.8 °C 56.3 °F /  13.5 °C 30in /  1016.6hPa WSW 6.9mph /  11.1km/h 7mph /  11.3km/h 67% 0in /  0.0mm 907 W/m2
12:22 67.8 °F /  19.9 °C 56.8 °F /  13.8 °C 30in /  1016.3hPa West 2mph /  3.2km/h 4mph /  6.4km/h 68% 0in /  0.0mm 891 W/m2
12:27 68.4 °F /  20.2 °C 57.4 °F /  14.1 °C 30in /  1016.3hPa SW 0.9mph /  1.4km/h 3mph /  4.8km/h 68% 0in /  0.0mm 937 W/m2
12:32 68.7 °F /  20.4 °C 55.6 °F /  13.1 °C 30in /  1016.6hPa WSW 8.1mph /  13km/h 10mph /  16.1km/h 63% 0in /  0.0mm 911 W/m2
12:37 68.7 °F /  20.4 °C 55.6 °F /  13.1 °C 30in /  1016.6hPa WNW 8.1mph /  13km/h 10mph /  16.1km/h 63% 0in /  0.0mm 984 W/m2
12:42 68.7 °F /  20.4 °C 56.5 °F /  13.6 °C 30in /  1016.3hPa North 4mph /  6.4km/h 6mph /  9.7km/h 65% 0in /  0.0mm 1002 W/m2
12:47 69.1 °F /  20.6 °C 55.6 °F /  13.1 °C 30in /  1016.3hPa NW 4.9mph /  7.9km/h 10mph /  16.1km/h 62% 0in /  0.0mm 396 W/m2
12:52 68.4 °F /  20.2 °C 55.8 °F /  13.2 °C 30in /  1016.6hPa West 4mph /  6.4km/h 8mph /  12.9km/h 64% 0in /  0.0mm 188 W/m2
12:57 67.5 °F /  19.7 °C 55.2 °F /  12.9 °C 30in /  1016.6hPa WSW 11mph /  17.7km/h 13mph /  20.9km/h 65% 0in /  0.0mm 165 W/m2
13:02 66.7 °F /  19.3 °C 54.7 °F /  12.6 °C 30in /  1016.6hPa NNW 4.9mph /  7.9km/h 8mph /  12.9km/h 65% 0in /  0.0mm 171 W/m2
13:07 66.7 °F /  19.3 °C 54.7 °F /  12.6 °C 30in /  1016.6hPa WNW 2mph /  3.2km/h 6mph /  9.7km/h 65% 0in /  0.0mm 234 W/m2
13:12 66.7 °F /  19.3 °C 55 °F /  12.8 °C 30in /  1016.6hPa NW 4mph /  6.4km/h 11mph /  17.7km/h 66% 0in /  0.0mm 264 W/m2
13:17 66.6 °F /  19.2 °C 55.2 °F /  12.9 °C 30in /  1016.6hPa WNW 2mph /  3.2km/h 8mph /  12.9km/h 67% 0in /  0.0mm 301 W/m2
13:22 66.7 °F /  19.3 °C 55.4 °F /  13 °C 30in /  1016.6hPa WNW 2.9mph /  4.7km/h 10mph /  16.1km/h 67% 0in /  0.0mm 404 W/m2
13:27 67.5 °F /  19.7 °C 56.1 °F /  13.4 °C 30in /  1016.6hPa NW 4mph /  6.4km/h 9mph /  14.5km/h 67% 0in /  0.0mm 1014 W/m2
13:33 68.4 °F /  20.2 °C 55.2 °F /  12.9 °C 30in /  1016.6hPa West 6mph /  9.7km/h 10mph /  16.1km/h 63% 0in /  0.0mm 1051 W/m2
13:38 68.7 °F /  20.4 °C 55.2 °F /  12.9 °C 30in /  1016.6hPa WNW 8.1mph /  13km/h 10mph /  16.1km/h 62% 0in /  0.0mm 1088 W/m2
13:43 68.5 °F /  20.3 °C 55.4 °F /  13 °C 30in /  1016.6hPa West 6.9mph /  11.1km/h 10mph /  16.1km/h 63% 0in /  0.0mm 638 W/m2
13:48 68.2 °F /  20.1 °C 55 °F /  12.8 °C 30in /  1016.6hPa West 8.1mph /  13km/h 11mph /  17.7km/h 63% 0in /  0.0mm 385 W/m2
13:53 67.8 °F /  19.9 °C 55.6 °F /  13.1 °C 30in /  1016.6hPa NW 4.9mph /  7.9km/h 8mph /  12.9km/h 65% 0in /  0.0mm 385 W/m2
13:58 67.8 °F /  19.9 °C 55.6 °F /  13.1 °C 30in /  1016.6hPa WSW 4.9mph /  7.9km/h 7mph /  11.3km/h 65% 0in /  0.0mm 545 W/m2
14:03 68 °F /  20 °C 55.8 °F /  13.2 °C 30in /  1016.6hPa West 2mph /  3.2km/h 10mph /  16.1km/h 65% 0in /  0.0mm 696 W/m2
14:08 68.7 °F /  20.4 °C 56.1 °F /  13.4 °C 30in /  1016.6hPa West 2.9mph /  4.7km/h 8mph /  12.9km/h 64% 0in /  0.0mm 612 W/m2
14:13 69.3 °F /  20.7 °C 57 °F /  13.9 °C 30in /  1016.3hPa NW 4mph /  6.4km/h 8mph /  12.9km/h 65% 0in /  0.0mm 371 W/m2
14:18 69.4 °F /  20.8 °C 56.7 °F /  13.7 °C 30in /  1016.6hPa WSW 4mph /  6.4km/h 12mph /  19.3km/h 64% 0in /  0.0mm 1097 W/m2
14:23 70 °F /  21.1 °C 56.8 °F /  13.8 °C 30in /  1016.6hPa WNW 2.9mph /  4.7km/h 7mph /  11.3km/h 63% 0in /  0.0mm 1137 W/m2
14:28 69.4 °F /  20.8 °C 55.9 °F /  13.3 °C 30in /  1016.6hPa West 6.9mph /  11.1km/h 11mph /  17.7km/h 62% 0in /  0.0mm 508 W/m2
14:33 69.6 °F /  20.9 °C 56.5 °F /  13.6 °C 30in /  1016.6hPa WSW 6mph /  9.7km/h 8mph /  12.9km/h 63% 0in /  0.0mm 956 W/m2
14:38 69.6 °F /  20.9 °C 55.9 °F /  13.3 °C 30in /  1016.6hPa WNW 6mph /  9.7km/h 9mph /  14.5km/h 62% 0in /  0.0mm 956 W/m2
14:43 69.8 °F /  21 °C 57 °F /  13.9 °C 30in /  1016.6hPa NNW 6mph /  9.7km/h 12mph /  19.3km/h 64% 0in /  0.0mm 918 W/m2
14:48 70.2 °F /  21.2 °C 57 °F /  13.9 °C 30in /  1016.6hPa WSW 10.1mph /  16.3km/h 10mph /  16.1km/h 63% 0in /  0.0mm 798 W/m2
14:53 70.2 °F /  21.2 °C 56.5 °F /  13.6 °C 30in /  1016.6hPa WNW 8.1mph /  13km/h 13mph /  20.9km/h 62% 0in /  0.0mm 963 W/m2
14:58 70.2 °F /  21.2 °C 56.1 °F /  13.4 °C 30in /  1016.6hPa West 4mph /  6.4km/h 11mph /  17.7km/h 61% 0in /  0.0mm 1039 W/m2
15:03 69.3 °F /  20.7 °C 55.2 °F /  12.9 °C 30in /  1016.6hPa WSW 4.9mph /  7.9km/h 9mph /  14.5km/h 61% 0in /  0.0mm 499 W/m2
15:08 69.4 °F /  20.8 °C 56.3 °F /  13.5 °C 30in /  1016.3hPa WNW 2.9mph /  4.7km/h 4mph /  6.4km/h 63% 0in /  0.0mm 976 W/m2
15:13 70.2 °F /  21.2 °C 56.5 °F /  13.6 °C 30in /  1016.3hPa WNW 4mph /  6.4km/h 6mph /  9.7km/h 62% 0in /  0.0mm 1085 W/m2
15:18 70.7 °F /  21.5 °C 55.6 °F /  13.1 °C 30in /  1016.6hPa WNW 2mph /  3.2km/h 5mph /  8km/h 59% 0in /  0.0mm 1058 W/m2
15:23 71.1 °F /  21.7 °C 56.5 °F /  13.6 °C 30in /  1016.3hPa WNW 4mph /  6.4km/h 4mph /  6.4km/h 60% 0in /  0.0mm 557 W/m2
15:28 71.2 °F /  21.8 °C 56.1 °F /  13.4 °C 30in /  1016.6hPa West 6.9mph /  11.1km/h 10mph /  16.1km/h 59% 0in /  0.0mm 622 W/m2
15:33 70.7 °F /  21.5 °C 54.7 °F /  12.6 °C 30in /  1016.3hPa West 6mph /  9.7km/h 11mph /  17.7km/h 57% 0in /  0.0mm 991 W/m2
15:38 71.1 °F /  21.7 °C 55.9 °F /  13.3 °C 30in /  1016.3hPa WNW 0.9mph /  1.4km/h 7mph /  11.3km/h 59% 0in /  0.0mm 735 W/m2
15:43 72 °F /  22.2 °C 55.9 °F /  13.3 °C 30in /  1016.3hPa NNW 6mph /  9.7km/h 11mph /  17.7km/h 57% 0in /  0.0mm 977 W/m2
15:48 71.8 °F /  22.1 °C 55.8 °F /  13.2 °C 30in /  1016.3hPa WNW 2.9mph /  4.7km/h 10mph /  16.1km/h 57% 0in /  0.0mm 977 W/m2
15:53 72 °F /  22.2 °C 56.8 °F /  13.8 °C 30in /  1016.3hPa WNW 6mph /  9.7km/h 12mph /  19.3km/h 59% 0in /  0.0mm 893 W/m2
15:58 71.8 °F /  22.1 °C 55.8 °F /  13.2 °C 30in /  1016.3hPa WNW 6mph /  9.7km/h 9mph /  14.5km/h 57% 0in /  0.0mm 132 W/m2
16:03 70.9 °F /  21.6 °C 55.4 °F /  13 °C 30in /  1016.3hPa NW 0.9mph /  1.4km/h 4mph /  6.4km/h 58% 0in /  0.0mm 218 W/m2
16:08 70.3 °F /  21.3 °C 55.8 °F /  13.2 °C 30in /  1016.3hPa WSW 2.9mph /  4.7km/h 6mph /  9.7km/h 60% 0in /  0.0mm 250 W/m2
16:18 70.7 °F /  21.5 °C 55.6 °F /  13.1 °C 30in /  1016.3hPa WNW 4mph /  6.4km/h 6mph /  9.7km/h 59% 0in /  0.0mm 951 W/m2
16:23 71.2 °F /  21.8 °C 56.7 °F /  13.7 °C 30in /  1016.6hPa WNW 8.9mph /  14.3km/h 10mph /  16.1km/h 60% 0in /  0.0mm 944 W/m2
16:28 70.9 °F /  21.6 °C 56.3 °F /  13.5 °C 30in /  1016.6hPa West 6mph /  9.7km/h 9mph /  14.5km/h 60% 0in /  0.0mm 213 W/m2
16:33 70 °F /  21.1 °C 56.8 °F /  13.8 °C 30in /  1016.6hPa West 2.9mph /  4.7km/h 7mph /  11.3km/h 63% 0in /  0.0mm 253 W/m2
16:38 69.6 °F /  20.9 °C 55.9 °F /  13.3 °C 30in /  1016.6hPa WSW 10.1mph /  16.3km/h 11mph /  17.7km/h 62% 0in /  0.0mm 373 W/m2
16:43 70.2 °F /  21.2 °C 56.1 °F /  13.4 °C 30in /  1016.6hPa WNW 11mph /  17.7km/h 13mph /  20.9km/h 61% 0in /  0.0mm 986 W/m2
16:48 70.7 °F /  21.5 °C 55.6 °F /  13.1 °C 30in /  1016.6hPa WSW 8.9mph /  14.3km/h 12mph /  19.3km/h 59% 0in /  0.0mm 410 W/m2
16:53 70.7 °F /  21.5 °C 55.6 °F /  13.1 °C 30in /  1016.6hPa WNW 8.1mph /  13km/h 13mph /  20.9km/h 59% 0in /  0.0mm 856 W/m2
16:58 70.7 °F /  21.5 °C 54.7 °F /  12.6 °C 30in /  1016.6hPa NNW 4mph /  6.4km/h 10mph /  16.1km/h 57% 0in /  0.0mm 234 W/m2
17:03 71.1 °F /  21.7 °C 55 °F /  12.8 °C 30in /  1016.6hPa WNW 4.9mph /  7.9km/h 12mph /  19.3km/h 57% 0in /  0.0mm 731 W/m2
17:08 71.4 °F /  21.9 °C 54.5 °F /  12.5 °C 30in /  1016.6hPa West 6.9mph /  11.1km/h 8mph /  12.9km/h 55% 0in /  0.0mm 687 W/m2
17:13 71.8 °F /  22.1 °C 53.8 °F /  12.1 °C 30in /  1016.6hPa West 0.9mph /  1.4km/h 8mph /  12.9km/h 53% 0in /  0.0mm 668 W/m2
17:18 72 °F /  22.2 °C 54.9 °F /  12.7 °C 30in /  1016.6hPa WNW 8.1mph /  13km/h 9mph /  14.5km/h 55% 0in /  0.0mm 635 W/m2
17:23 72.1 °F /  22.3 °C 55 °F /  12.8 °C 30in /  1016.6hPa NW 4mph /  6.4km/h 9mph /  14.5km/h 55% 0in /  0.0mm 703 W/m2
17:28 72 °F /  22.2 °C 55.4 °F /  13 °C 30in /  1016.6hPa WSW 2.9mph /  4.7km/h 9mph /  14.5km/h 56% 0in /  0.0mm 724 W/m2
17:33 72 °F /  22.2 °C 54 °F /  12.2 °C 30in /  1016.6hPa SW 6.9mph /  11.1km/h 15mph /  24.1km/h 53% 0in /  0.0mm 679 W/m2
17:38 71.8 °F /  22.1 °C 53.2 °F /  11.8 °C 30in /  1016.6hPa WSW 11mph /  17.7km/h 11mph /  17.7km/h 52% 0in /  0.0mm 628 W/m2
17:43 71.6 °F /  22 °C 53.1 °F /  11.7 °C 30in /  1016.6hPa WSW 8.9mph /  14.3km/h 13mph /  20.9km/h 52% 0in /  0.0mm 635 W/m2
17:53 70.9 °F /  21.6 °C 51.8 °F /  11 °C 30in /  1016.6hPa WNW 6mph /  9.7km/h 14mph /  22.5km/h 51% 0in /  0.0mm 313 W/m2
17:58 70.5 °F /  21.4 °C 52.5 °F /  11.4 °C 30in /  1016.9hPa WNW 6.9mph /  11.1km/h 9mph /  14.5km/h 53% 0in /  0.0mm 596 W/m2
18:04 70.9 °F /  21.6 °C 54 °F /  12.2 °C 30in /  1016.6hPa WSW 8.9mph /  14.3km/h 9mph /  14.5km/h 55% 0in /  0.0mm 587 W/m2
18:09 71.1 °F /  21.7 °C 53.6 °F /  12 °C 30in /  1016.6hPa WNW 8.1mph /  13km/h 8mph /  12.9km/h 54% 0in /  0.0mm 541 W/m2
18:14 71.2 °F /  21.8 °C 53.8 °F /  12.1 °C 30in /  1016.6hPa West 6.9mph /  11.1km/h 10mph /  16.1km/h 54% 0in /  0.0mm 503 W/m2
18:19 71.4 °F /  21.9 °C 54.5 °F /  12.5 °C 30in /  1016.6hPa NW 8.9mph /  14.3km/h 9mph /  14.5km/h 55% 0in /  0.0mm 464 W/m2
18:24 71.4 °F /  21.9 °C 54 °F /  12.2 °C 30in /  1016.6hPa West 6mph /  9.7km/h 10mph /  16.1km/h 54% 0in /  0.0mm 336 W/m2
18:29 71.1 °F /  21.7 °C 54.1 °F /  12.3 °C 30in /  1016.6hPa WNW 2.9mph /  4.7km/h 7mph /  11.3km/h 55% 0in /  0.0mm 381 W/m2
18:34 71.2 °F /  21.8 °C 54.3 °F /  12.4 °C 30in /  1016.6hPa WSW 2.9mph /  4.7km/h 10mph /  16.1km/h 55% 0in /  0.0mm 352 W/m2
18:39 71.6 °F /  22 °C 54.5 °F /  12.5 °C 30in /  1016.6hPa NW 2.9mph /  4.7km/h 3mph /  4.8km/h 55% 0in /  0.0mm 330 W/m2
18:44 71.8 °F /  22.1 °C 54.3 °F /  12.4 °C 30in /  1016.6hPa NNW 2.9mph /  4.7km/h 4mph /  6.4km/h 54% 0in /  0.0mm 309 W/m2
18:49 71.6 °F /  22 °C 54.1 °F /  12.3 °C 30in /  1016.6hPa WSW 2mph /  3.2km/h 6mph /  9.7km/h 54% 0in /  0.0mm 283 W/m2
18:54 71.8 °F /  22.1 °C 54.7 °F /  12.6 °C 30in /  1016.6hPa SSW 2mph /  3.2km/h 6mph /  9.7km/h 55% 0in /  0.0mm 267 W/m2
18:59 72 °F /  22.2 °C 54.9 °F /  12.7 °C 30in /  1016.6hPa SSW 2.9mph /  4.7km/h 5mph /  8km/h 55% 0in /  0.0mm 265 W/m2
19:04 71.6 °F /  22 °C 54.5 °F /  12.5 °C 30in /  1016.6hPa WNW 6.9mph /  11.1km/h 7mph /  11.3km/h 55% 0in /  0.0mm 283 W/m2
19:09 71.6 °F /  22 °C 54.5 °F /  12.5 °C 30in /  1016.6hPa West 2.9mph /  4.7km/h 6mph /  9.7km/h 55% 0in /  0.0mm 299 W/m2
19:14 72 °F /  22.2 °C 54.9 °F /  12.7 °C 30in /  1016.6hPa WNW 2.9mph /  4.7km/h 7mph /  11.3km/h 55% 0in /  0.0mm 318 W/m2
19:19 72.1 °F /  22.3 °C 55 °F /  12.8 °C 30in /  1016.6hPa WNW 2.9mph /  4.7km/h 6mph /  9.7km/h 55% 0in /  0.0mm 320 W/m2
19:24 72.3 °F /  22.4 °C 54.7 °F /  12.6 °C 30in /  1016.6hPa WNW 4mph /  6.4km/h 5mph /  8km/h 54% 0in /  0.0mm 311 W/m2
19:29 72.1 °F /  22.3 °C 54.5 °F /  12.5 °C 30in /  1016.6hPa WNW 2.9mph /  4.7km/h 8mph /  12.9km/h 54% 0in /  0.0mm 290 W/m2
19:34 72 °F /  22.2 °C 54.3 °F /  12.4 °C 30in /  1016.6hPa WNW 2mph /  3.2km/h 8mph /  12.9km/h 54% 0in /  0.0mm 255 W/m2
19:39 72 °F /  22.2 °C 54.3 °F /  12.4 °C 30in /  1016.6hPa NNW 2.9mph /  4.7km/h 7mph /  11.3km/h 54% 0in /  0.0mm 204 W/m2
19:44 71.8 °F /  22.1 °C 54.3 °F /  12.4 °C 30in /  1016.6hPa NW 0.9mph /  1.4km/h 5mph /  8km/h 54% 0in /  0.0mm 181 W/m2
19:49 72 °F /  22.2 °C 54.3 °F /  12.4 °C 30in /  1016.6hPa WSW 2.9mph /  4.7km/h 4mph /  6.4km/h 54% 0in /  0.0mm 176 W/m2
19:54 72 °F /  22.2 °C 54.9 °F /  12.7 °C 30in /  1016.6hPa WSW 2.9mph /  4.7km/h 3mph /  4.8km/h 55% 0in /  0.0mm 181 W/m2
19:59 72 °F /  22.2 °C 54.9 °F /  12.7 °C 30in /  1016.9hPa West 2mph /  3.2km/h 4mph /  6.4km/h 55% 0in /  0.0mm 178 W/m2
20:04 71.8 °F /  22.1 °C 54.7 °F /  12.6 °C 30in /  1016.6hPa NW 2mph /  3.2km/h 6mph /  9.7km/h 55% 0in /  0.0mm 165 W/m2
20:09 71.1 °F /  21.7 °C 54.5 °F /  12.5 °C 30in /  1016.9hPa West 2.9mph /  4.7km/h 7mph /  11.3km/h 56% 0in /  0.0mm 47 W/m2
20:14 70.5 °F /  21.4 °C 54.5 °F /  12.5 °C 30in /  1016.9hPa West 2mph /  3.2km/h 7mph /  11.3km/h 57% 0in /  0.0mm 127 W/m2
20:19 70.3 °F /  21.3 °C 54.3 °F /  12.4 °C 30in /  1016.9hPa West 2.9mph /  4.7km/h 4mph /  6.4km/h 57% 0in /  0.0mm 74 W/m2
20:24 70.3 °F /  21.3 °C 54.3 °F /  12.4 °C 30in /  1016.9hPa WNW 2.9mph /  4.7km/h 4mph /  6.4km/h 57% 0in /  0.0mm 121 W/m2
20:29 70.5 °F /  21.4 °C 55 °F /  12.8 °C 30in /  1016.9hPa SW 0.9mph /  1.4km/h 4mph /  6.4km/h 58% 0in /  0.0mm 113 W/m2
20:34 70.7 °F /  21.5 °C 54.7 °F /  12.6 °C 30in /  1016.9hPa WNW 2.9mph /  4.7km/h 4mph /  6.4km/h 57% 0in /  0.0mm 100 W/m2
20:39 70.7 °F /  21.5 °C 54.7 °F /  12.6 °C 30in /  1016.9hPa WNW 4mph /  6.4km/h 7mph /  11.3km/h 57% 0in /  0.0mm 104 W/m2
20:44 70.7 °F /  21.5 °C 54.7 °F /  12.6 °C 30in /  1016.9hPa WNW 2.9mph /  4.7km/h 6mph /  9.7km/h 57% 0in /  0.0mm 100 W/m2
20:49 70.3 °F /  21.3 °C 54.9 °F /  12.7 °C 30in /  1016.9hPa SW 2.9mph /  4.7km/h 4mph /  6.4km/h 58% 0in /  0.0mm 86 W/m2
20:54 70.2 °F /  21.2 °C 54.7 °F /  12.6 °C 30in /  1016.9hPa NW 2.9mph /  4.7km/h 3mph /  4.8km/h 58% 0in /  0.0mm 39 W/m2
20:59 70 °F /  21.1 °C 55.9 °F /  13.3 °C 30in /  1016.9hPa Calm     61% 0in /  0.0mm 54 W/m2
21:04 70 °F /  21.1 °C 55.9 °F /  13.3 °C 30in /  1017.3hPa SW 0.9mph /  1.4km/h 1mph /  1.6km/h 61% 0in /  0.0mm 42 W/m2
21:10 70 °F /  21.1 °C 55.9 °F /  13.3 °C 30in /  1017.3hPa Calm   1mph /  1.6km/h 61% 0in /  0.0mm 32 W/m2
21:15 69.6 °F /  20.9 °C 55.9 °F /  13.3 °C 30in /  1017.3hPa Calm   1mph /  1.6km/h 62% 0in /  0.0mm 21 W/m2
21:20 69.1 °F /  20.6 °C 56.5 °F /  13.6 °C 30in /  1017.3hPa West 0.9mph /  1.4km/h 1mph /  1.6km/h 64% 0in /  0.0mm 18 W/m2
21:25 68.4 °F /  20.2 °C 55.8 °F /  13.2 °C 30in /  1017.3hPa Calm   1mph /  1.6km/h 64% 0in /  0.0mm 12 W/m2
21:30 67.6 °F /  19.8 °C 55 °F /  12.8 °C 30in /  1017.3hPa WSW 0.9mph /  1.4km/h 2mph /  3.2km/h 64% 0in /  0.0mm 11 W/m2
21:35 67.3 °F /  19.6 °C 55 °F /  12.8 °C 30.1in /  1017.6hPa WSW 0.9mph /  1.4km/h 3mph /  4.8km/h 65% 0in /  0.0mm 7 W/m2
21:40 66.7 °F /  19.3 °C 55 °F /  12.8 °C 30.1in /  1017.6hPa WSW 0.9mph /  1.4km/h 2mph /  3.2km/h 66% 0in /  0.0mm 5 W/m2
21:45 66.4 °F /  19.1 °C 54.7 °F /  12.6 °C 30.1in /  1017.6hPa West 2mph /  3.2km/h 3mph /  4.8km/h 66% 0in /  0.0mm 0 W/m2
21:50 65.8 °F /  18.8 °C 54.1 °F /  12.3 °C 30.1in /  1017.6hPa West 0.9mph /  1.4km/h 1mph /  1.6km/h 66% 0in /  0.0mm 0 W/m2
21:55 65.7 °F /  18.7 °C 54 °F /  12.2 °C 30.1in /  1017.6hPa SW 0.9mph /  1.4km/h 3mph /  4.8km/h 66% 0in /  0.0mm 0 W/m2
22:00 65.5 °F /  18.6 °C 53.4 °F /  11.9 °C 30.1in /  1018.0hPa WSW 2mph /  3.2km/h 3mph /  4.8km/h 65% 0in /  0.0mm 0 W/m2
22:05 65.1 °F /  18.4 °C 52.7 °F /  11.5 °C 30.1in /  1018.0hPa West 2mph /  3.2km/h 6mph /  9.7km/h 64% 0in /  0.0mm 0 W/m2
22:10 65.1 °F /  18.4 °C 52.7 °F /  11.5 °C 30.1in /  1018.0hPa West 2mph /  3.2km/h 3mph /  4.8km/h 64% 0in /  0.0mm 0 W/m2
22:15 64.9 °F /  18.3 °C 52 °F /  11.1 °C 30.1in /  1018.0hPa West 0.9mph /  1.4km/h 6mph /  9.7km/h 63% 0in /  0.0mm 0 W/m2
22:20 64.8 °F /  18.2 °C 51.4 °F /  10.8 °C 30.1in /  1018.0hPa West 2.9mph /  4.7km/h 7mph /  11.3km/h 62% 0in /  0.0mm 0 W/m2
22:25 64.8 °F /  18.2 °C 51.8 °F /  11 °C 30.1in /  1018.0hPa West 2mph /  3.2km/h 3mph /  4.8km/h 63% 0in /  0.0mm 0 W/m2
22:30 64.8 °F /  18.2 °C 51.4 °F /  10.8 °C 30.1in /  1018.0hPa West 2mph /  3.2km/h 4mph /  6.4km/h 62% 0in /  0.0mm 0 W/m2
22:35 64.8 °F /  18.2 °C 51.4 °F /  10.8 °C 30.1in /  1018.3hPa West 2mph /  3.2km/h 3mph /  4.8km/h 62% 0in /  0.0mm 0 W/m2
22:40 64.6 °F /  18.1 °C 51.3 °F /  10.7 °C 30.1in /  1018.3hPa WSW 2mph /  3.2km/h 3mph /  4.8km/h 62% 0in /  0.0mm 0 W/m2
22:50 64.4 °F /  18 °C 51.1 °F /  10.6 °C 30.1in /  1018.3hPa West 2.9mph /  4.7km/h 6mph /  9.7km/h 62% 0in /  0.0mm 0 W/m2
22:55 64.2 °F /  17.9 °C 51.4 °F /  10.8 °C 30.1in /  1018.3hPa Calm   3mph /  4.8km/h 63% 0in /  0.0mm 0 W/m2
23:00 64 °F /  17.8 °C 51.6 °F /  10.9 °C 30.1in /  1018.3hPa West 2.9mph /  4.7km/h 5mph /  8km/h 64% 0in /  0.0mm 0 W/m2
23:06 64 °F /  17.8 °C 51.3 °F /  10.7 °C 30.1in /  1018.3hPa WSW 2.9mph /  4.7km/h 3mph /  4.8km/h 63% 0in /  0.0mm 0 W/m2
23:11 64 °F /  17.8 °C 50.7 °F /  10.4 °C 30.1in /  1018.6hPa West 2mph /  3.2km/h 6mph /  9.7km/h 62% 0in /  0.0mm 0 W/m2
23:16 64 °F /  17.8 °C 51.3 °F /  10.7 °C 30.1in /  1018.6hPa West 2mph /  3.2km/h 3mph /  4.8km/h 63% 0in /  0.0mm 0 W/m2
23:21 64 °F /  17.8 °C 51.3 °F /  10.7 °C 30.1in /  1018.6hPa West 4mph /  6.4km/h 6mph /  9.7km/h 63% 0in /  0.0mm 0 W/m2
23:26 64 °F /  17.8 °C 51.3 °F /  10.7 °C 30.1in /  1018.6hPa West 2.9mph /  4.7km/h 5mph /  8km/h 63% 0in /  0.0mm 0 W/m2
23:31 63.9 °F /  17.7 °C 51.8 °F /  11 °C 30.1in /  1018.6hPa NW 2.9mph /  4.7km/h 3mph /  4.8km/h 65% 0in /  0.0mm 0 W/m2
23:36 63.1 °F /  17.3 °C 52.9 °F /  11.6 °C 30.1in /  1018.6hPa NW 0.9mph /  1.4km/h 3mph /  4.8km/h 69% 0in /  0.0mm 0 W/m2
23:41 62.2 °F /  16.8 °C 52.3 °F /  11.3 °C 30.1in /  1018.6hPa NW 0.9mph /  1.4km/h 2mph /  3.2km/h 70% 0in /  0.0mm 0 W/m2
23:46 61.9 °F /  16.6 °C 52.3 °F /  11.3 °C 30.1in /  1018.6hPa WNW 0.9mph /  1.4km/h 2mph /  3.2km/h 71% 0in /  0.0mm 0 W/m2
23:51 61.3 °F /  16.3 °C 52.2 °F /  11.2 °C 30.1in /  1018.6hPa WNW 0.9mph /  1.4km/h 2mph /  3.2km/h 72% 0in /  0.0mm 0 W/m2
23:56 61 °F /  16.1 °C 52.3 °F /  11.3 °C 30.1in /  1018.6hPa West 2mph /  3.2km/h 3mph /  4.8km/h 73% 0in /  0.0mm 0 W/m2
Juneau County Weather
Compliments of Weather Underground - 4 mb